Startpagina
METAR-TAF:

METAR-TAF

Vliegvelden :

Productieplatform

Goeree Le, Nederland

breedte: 51-55-33N, lengte: 3-40-12E, hoogte: 19 m

Actueel weer

Dit bericht is 46 minuten geleden gemaakt, om 07:25 UTC
Wind 6 kt uit het zuidzuidwesten
Temperatuur 14°C
Vochtigheid 72%
Druk 1030 hPa
Zicht 10 km of meer

METAR: EHSC 200725Z AUTO 20006KT 9999 ///////// 14/09 Q1030 W16/H3

Tijdstip: 10:11 (08:11 UTC)


TAF: ontbreekt

Waarnemingen en weersverwachtingen van meer dan 4000 vliegvelden (METAR en TAF).

De beschikbare stations zijn de gele en rode punten op de kaart.

Ga met uw muis naar het station om de naam te zien.

Klik dan om waarnemingen en weersverwachtingen te zien.

kaart wijzigen: klik op de groene knoppen met een zwart kruis om in te zoomen, op de groene knop met een streepje om uit te zoomen of op de groene pijlen voor aangrenzende kaarten.


METAR-TAF: